Las Cruces, NM

3:23 AM MDT on September 26, 2017 (GMT -0600)
Las Cruces International

Weather History for KLRU - November, 2013

Change the Weather History Date:

Monday, November 25, 2013

  Actual Average Record
Temperature  
Mean Temperature 36 °F -  
Max Temperature 42 °F 56 °F 74 °F (2015)
Min Temperature 29 °F 34 °F 28 °F (2000)
Degree Days  
Heating Degree Days 30    
Moisture  
Dew Point 30 °F    
Average Humidity 87    
Maximum Humidity 96    
Minimum Humidity 69    
Precipitation  
Precipitation 0.00 in - - ()
Sea Level Pressure  
Sea Level Pressure 30.19 in    
Wind  
Wind Speed 6 mph (WNW)    
Max Wind Speed 12 mph    
Max Gust Speed -    
Visibility 10 miles    
Events      
Averages and records for this station are not official NWS values.
T = Trace of Precipitation, MM = Missing Value Source: NWS Daily Summary

Daily Weather History Graph

Daily Weather History Graph

Search for Another Location

Airport or City:

Trip Planner

Search our weather history database for the weather conditions in past years. The results will help you decide how hot, cold, wet, or windy it might be!

Date:

Astronomy

Nov. 25, 2013 Rise Set
Actual Time 6:46 AM MST 5:03 PM MST
Civil Twilight 6:19 AM MST 5:29 PM MST
Nautical Twilight 5:49 AM MST 5:59 PM MST
Astronomical Twilight 5:20 AM MST 6:29 PM MST
Moon No Moon Rise 12:17 PM MST (11/25)
Length of Visible Light 11h 10m
Length of Day
10h 17m
Waning Gibbous, 50% of the Moon is Illuminated
Nov 25
Waning Gibbous
Nov 25
Last Quarter
Dec 2
New
Dec 9
First Quarter
Dec 17
Full

Hourly Weather History & Observations

Time (MST) Temp. Windchill Dew Point Humidity Pressure Visibility Wind Dir Wind Speed Gust Speed Precip Events Conditions
12:15 AM 32.0 °F 27.5 °F 28.4 °F 87% 30.17 in 10.0 mi West 4.6 mph - N/A   Overcast
12:35 AM 32.0 °F 26.4 °F 28.4 °F 87% 30.17 in 10.0 mi WSW 5.8 mph - N/A   Overcast
12:55 AM 31.8 °F 28.5 °F 28.0 °F 86% 30.17 in 10.0 mi West 3.5 mph - N/A   Overcast
1:15 AM 32.0 °F 25.6 °F 28.4 °F 87% 30.16 in 10.0 mi WSW 6.9 mph - N/A   Overcast
1:35 AM 31.5 °F 24.9 °F 28.4 °F 88% 30.16 in 10.0 mi SW 6.9 mph - N/A   Overcast
1:55 AM 31.1 °F 24.5 °F 28.2 °F 89% 30.15 in 10.0 mi WSW 6.9 mph - N/A   Overcast
2:15 AM 30.9 °F 25.2 °F 28.2 °F 90% 30.15 in 10.0 mi West 5.8 mph - N/A   Overcast
2:35 AM 30.7 °F 24.9 °F 28.0 °F 90% 30.15 in 10.0 mi West 5.8 mph - N/A   Overcast
2:55 AM 30.6 °F 27.1 °F 28.2 °F 91% 30.15 in 10.0 mi West 3.5 mph - N/A   Overcast
3:15 AM 30.2 °F 25.4 °F 28.2 °F 92% 30.15 in 10.0 mi WSW 4.6 mph - N/A   Overcast
3:35 AM 30.2 °F 25.4 °F 28.2 °F 92% 30.13 in 10.0 mi WSW 4.6 mph - N/A   Overcast
3:55 AM 30.2 °F 25.4 °F 28.2 °F 92% 30.13 in 10.0 mi West 4.6 mph - N/A   Overcast
4:15 AM 30.2 °F 23.4 °F 28.2 °F 92% 30.13 in 10.0 mi WSW 6.9 mph - N/A   Overcast
4:35 AM 30.2 °F 24.3 °F 28.4 °F 93% 30.13 in 10.0 mi West 5.8 mph - N/A   Overcast
4:55 AM 30.6 °F 23.8 °F 28.4 °F 92% 30.13 in 10.0 mi WNW 6.9 mph - N/A   Overcast
5:15 AM 30.7 °F 26.0 °F 28.8 °F 92% 30.13 in 10.0 mi West 4.6 mph - N/A   Overcast
5:35 AM 30.7 °F 24.9 °F 28.6 °F 92% 30.13 in 10.0 mi West 5.8 mph - N/A   Overcast
5:55 AM 30.4 °F 25.6 °F 28.2 °F 92% 30.13 in 10.0 mi WSW 4.6 mph - N/A   Overcast
6:15 AM 30.9 °F 25.2 °F 28.6 °F 91% 30.14 in 10.0 mi WSW 5.8 mph - N/A   Overcast
6:35 AM 31.1 °F 25.4 °F 28.8 °F 91% 30.14 in 10.0 mi West 5.8 mph - N/A   Overcast
6:55 AM 30.9 °F 26.2 °F 28.4 °F 90% 30.14 in 10.0 mi West 4.6 mph - N/A   Overcast
7:15 AM 31.1 °F 26.4 °F 28.8 °F 91% 30.15 in 10.0 mi West 4.6 mph - N/A   Overcast
7:35 AM 31.1 °F 24.5 °F 28.8 °F 91% 30.15 in 10.0 mi West 6.9 mph - N/A   Overcast
7:55 AM 30.6 °F 22.4 °F 28.6 °F 92% 30.16 in 10.0 mi WSW 9.2 mph - N/A   Overcast
8:15 AM 30.6 °F 23.8 °F 28.8 °F 93% 30.16 in 10.0 mi WSW 6.9 mph - N/A   Overcast
8:35 AM 30.0 °F 20.5 °F 28.4 °F 94% 30.16 in 10.0 mi West 11.5 mph - N/A   Overcast
8:55 AM 29.8 °F 22.2 °F 28.6 °F 95% 30.17 in 7.0 mi West 8.1 mph - N/A   Overcast
9:15 AM 30.0 °F 21.7 °F 28.6 °F 94% 30.18 in 10.0 mi West 9.2 mph - N/A   Overcast
9:35 AM 30.2 °F 21.3 °F 29.1 °F 96% 30.19 in 7.0 mi West 10.4 mph - N/A   Overcast
9:55 AM 30.4 °F 23.6 °F 29.1 °F 95% 30.19 in 10.0 mi WNW 6.9 mph - N/A   Overcast
10:15 AM 31.3 °F 26.6 °F 29.7 °F 94% 30.20 in 10.0 mi WNW 4.6 mph - N/A   Overcast
10:35 AM 31.6 °F 28.3 °F 29.7 °F 92% 30.20 in 10.0 mi WNW 3.5 mph - N/A   Overcast
10:55 AM 32.0 °F - 29.8 °F 92% 30.20 in 10.0 mi Calm Calm - N/A   Overcast
11:15 AM 32.2 °F 27.7 °F 30.0 °F 92% 30.20 in 10.0 mi NNW 4.6 mph - N/A   Overcast
11:35 AM 33.3 °F 27.9 °F 30.9 °F 91% 30.19 in 10.0 mi WNW 5.8 mph - N/A   Overcast
11:55 AM 33.6 °F 30.6 °F 30.9 °F 90% 30.19 in 10.0 mi NNW 3.5 mph - N/A   Overcast
12:15 PM 34.2 °F 30.0 °F 30.9 °F 88% 30.18 in 10.0 mi NNW 4.6 mph - N/A   Overcast
12:35 PM 35.1 °F 31.0 °F 30.9 °F 85% 30.17 in 10.0 mi NNW 4.6 mph - N/A   Overcast
12:55 PM 36.1 °F 33.5 °F 31.5 °F 83% 30.17 in 10.0 mi North 3.5 mph - N/A   Overcast
1:15 PM 37.9 °F 33.5 °F 32.0 °F 79% 30.16 in 10.0 mi North 5.8 mph - N/A   Mostly Cloudy
1:35 PM 39.6 °F 35.4 °F 32.9 °F 77% 30.16 in 10.0 mi North 5.8 mph - N/A   Scattered Clouds
1:55 PM 40.1 °F 38.0 °F 33.3 °F 77% 30.16 in 10.0 mi North 3.5 mph - N/A   Scattered Clouds
2:15 PM 41.0 °F 36.4 °F 32.7 °F 72% 30.16 in 10.0 mi NNE 6.9 mph - N/A   Clear
2:35 PM 40.8 °F 35.6 °F 32.7 °F 73% 30.17 in 10.0 mi NNE 8.1 mph - N/A   Clear
2:55 PM 42.1 °F 37.1 °F 34.0 °F 73% 30.17 in 10.0 mi NW 8.1 mph - N/A   Clear
3:15 PM 42.6 °F 38.4 °F 33.8 °F 71% 30.17 in 10.0 mi NW 6.9 mph - N/A   Clear
3:35 PM 42.6 °F 36.8 °F 33.3 °F 69% 30.17 in 10.0 mi NNW 10.4 mph - N/A   Clear
3:55 PM 42.3 °F 36.3 °F 32.9 °F 69% 30.18 in 10.0 mi NNW 10.4 mph - N/A   Clear
4:15 PM 42.4 °F 37.5 °F 32.9 °F 69% 30.18 in 10.0 mi NNW 8.1 mph - N/A   Clear
4:35 PM 41.7 °F 36.1 °F 32.5 °F 70% 30.19 in 10.0 mi NNW 9.2 mph - N/A   Clear
4:55 PM 40.5 °F 35.1 °F 32.5 °F 73% 30.19 in 10.0 mi NNW 8.1 mph - N/A   Clear
5:15 PM 38.8 °F 33.8 °F 32.4 °F 78% 30.20 in 10.0 mi North 6.9 mph - N/A   Clear
5:35 PM 37.9 °F 32.1 °F 32.0 °F 79% 30.21 in 10.0 mi NNW 8.1 mph - N/A   Clear
5:55 PM 37.2 °F 30.6 °F 32.0 °F 81% 30.21 in 10.0 mi NNW 9.2 mph - N/A   Clear
6:15 PM 37.0 °F 31.0 °F 31.8 °F 81% 30.21 in 10.0 mi NNW 8.1 mph - N/A   Clear
6:35 PM 36.1 °F - 31.3 °F 83% 30.22 in 10.0 mi Calm Calm - N/A   Clear
6:55 PM 34.7 °F 31.8 °F 30.9 °F 86% 30.23 in 10.0 mi ENE 3.5 mph - N/A   Clear
7:15 PM 35.2 °F 31.2 °F 30.9 °F 84% 30.24 in 10.0 mi WNW 4.6 mph - N/A   Clear
7:35 PM 35.2 °F 30.3 °F 30.9 °F 84% 30.25 in 10.0 mi West 5.8 mph - N/A   Clear
7:55 PM 33.6 °F - 30.7 °F 89% 30.26 in 10.0 mi Calm Calm - N/A   Clear
8:15 PM 32.9 °F 29.8 °F 30.2 °F 90% 30.25 in 10.0 mi NW 3.5 mph - N/A   Clear
8:35 PM 32.4 °F 26.0 °F 30.2 °F 92% 30.26 in 10.0 mi WNW 6.9 mph - N/A   Clear
8:55 PM 32.0 °F 24.8 °F 30.0 °F 92% 30.27 in 10.0 mi WNW 8.1 mph - N/A   Clear
9:15 PM 33.1 °F 26.9 °F 30.7 °F 91% 30.28 in 10.0 mi WNW 6.9 mph - N/A   Clear
9:35 PM 32.4 °F 26.9 °F 30.2 °F 92% 30.29 in 10.0 mi NW 5.8 mph - N/A   Clear
9:55 PM 32.4 °F 26.9 °F 30.0 °F 91% 30.29 in 10.0 mi NW 5.8 mph - N/A   Clear
10:15 PM 31.8 °F 26.2 °F 29.7 °F 92% 30.29 in 10.0 mi NW 5.8 mph - N/A   Clear
10:35 PM 32.0 °F 27.5 °F 30.0 °F 92% 30.30 in 10.0 mi NW 4.6 mph - N/A   Clear
10:55 PM 33.1 °F 25.5 °F 31.1 °F 92% 30.30 in 10.0 mi NNW 9.2 mph - N/A   Clear
11:15 PM 34.2 °F 26.8 °F 31.1 °F 89% 30.30 in 10.0 mi NNW 9.2 mph - N/A   Clear
11:35 PM 31.5 °F 26.8 °F 29.3 °F 92% 30.31 in 10.0 mi East 4.6 mph - N/A   Clear
11:55 PM 29.3 °F 24.3 °F 28.4 °F 96% 30.31 in 7.0 mi WSW 4.6 mph - N/A   Clear